sensor_id;sensor_type;location;lat;lon;timestamp;temperature;humidity
16700;DHT22;8466;52.286;21.124;2023-05-07T00:00:05;6.30;99.90
16700;DHT22;8466;52.286;21.124;2023-05-07T00:02:37;6.30;99.90
16700;DHT22;8466;52.286;21.124;2023-05-07T00:05:06;6.20;99.90
16700;DHT22;8466;52.286;21.124;2023-05-07T00:07:36;6.20;99.90
16700;DHT22;8466;52.286;21.124;2023-05-07T00:10:06;6.10;99.90
16700;DHT22;8466;52.286;21.124;2023-05-07T00:12:35;6.00;99.90
16700;DHT22;8466;52.286;21.124;2023-05-07T00:15:05;6.10;99.90
16700;DHT22;8466;52.286;21.124;2023-05-07T00:17:34;6.00;99.90
16700;DHT22;8466;52.286;21.124;2023-05-07T00:20:05;6.10;99.90
16700;DHT22;8466;52.286;21.124;2023-05-07T00:22:33;6.10;99.90
16700;DHT22;8466;52.286;21.124;2023-05-07T00:25:02;6.10;99.90
16700;DHT22;8466;52.286;21.124;2023-05-07T00:27:31;6.00;99.90
16700;DHT22;8466;52.286;21.124;2023-05-07T00:29:59;6.00;99.90
16700;DHT22;8466;52.286;21.124;2023-05-07T00:32:28;6.10;99.90
16700;DHT22;8466;52.286;21.124;2023-05-07T00:34:57;6.10;99.90
16700;DHT22;8466;52.286;21.124;2023-05-07T00:37:27;6.00;99.90
16700;DHT22;8466;52.286;21.124;2023-05-07T00:39:56;6.00;99.90
16700;DHT22;8466;52.286;21.124;2023-05-07T00:42:24;5.90;99.90
16700;DHT22;8466;52.286;21.124;2023-05-07T00:44:53;5.90;99.90
16700;DHT22;8466;52.286;21.124;2023-05-07T00:47:22;6.00;99.90
16700;DHT22;8466;52.286;21.124;2023-05-07T00:49:50;5.90;99.90
16700;DHT22;8466;52.286;21.124;2023-05-07T00:52:20;5.90;99.90
16700;DHT22;8466;52.286;21.124;2023-05-07T00:54:51;5.90;99.90
16700;DHT22;8466;52.286;21.124;2023-05-07T00:57:21;5.90;99.90
16700;DHT22;8466;52.286;21.124;2023-05-07T00:59:51;5.90;99.90
16700;DHT22;8466;52.286;21.124;2023-05-07T01:02:19;5.90;99.90
16700;DHT22;8466;52.286;21.124;2023-05-07T01:04:48;5.90;99.90
16700;DHT22;8466;52.286;21.124;2023-05-07T01:07:17;5.90;99.90
16700;DHT22;8466;52.286;21.124;2023-05-07T01:09:46;5.90;99.90
16700;DHT22;8466;52.286;21.124;2023-05-07T01:12:17;5.90;99.90
16700;DHT22;8466;52.286;21.124;2023-05-07T01:14:45;5.90;99.90
16700;DHT22;8466;52.286;21.124;2023-05-07T01:17:16;5.90;99.90
16700;DHT22;8466;52.286;21.124;2023-05-07T01:19:46;5.90;99.90
16700;DHT22;8466;52.286;21.124;2023-05-07T01:22:17;5.90;99.90
16700;DHT22;8466;52.286;21.124;2023-05-07T01:24:50;5.90;99.90
16700;DHT22;8466;52.286;21.124;2023-05-07T01:27:30;5.90;99.90
16700;DHT22;8466;52.286;21.124;2023-05-07T01:30:00;5.90;99.90
16700;DHT22;8466;52.286;21.124;2023-05-07T01:32:35;6.00;99.90
16700;DHT22;8466;52.286;21.124;2023-05-07T01:35:09;5.90;99.90
16700;DHT22;8466;52.286;21.124;2023-05-07T01:37:39;5.90;99.90
16700;DHT22;8466;52.286;21.124;2023-05-07T01:40:10;5.90;99.90
16700;DHT22;8466;52.286;21.124;2023-05-07T01:42:39;5.90;99.90
16700;DHT22;8466;52.286;21.124;2023-05-07T01:45:10;5.80;99.90
16700;DHT22;8466;52.286;21.124;2023-05-07T01:47:39;5.90;99.90
16700;DHT22;8466;52.286;21.124;2023-05-07T01:50:09;5.80;99.90
16700;DHT22;8466;52.286;21.124;2023-05-07T01:52:38;5.80;99.90
16700;DHT22;8466;52.286;21.124;2023-05-07T01:55:09;5.80;99.90
16700;DHT22;8466;52.286;21.124;2023-05-07T01:57:38;5.80;99.90
16700;DHT22;8466;52.286;21.124;2023-05-07T02:00:08;5.70;99.90
16700;DHT22;8466;52.286;21.124;2023-05-07T02:02:37;5.60;99.90
16700;DHT22;8466;52.286;21.124;2023-05-07T02:05:07;5.60;99.90
16700;DHT22;8466;52.286;21.124;2023-05-07T02:07:36;5.60;99.90
16700;DHT22;8466;52.286;21.124;2023-05-07T02:10:06;5.60;99.90
16700;DHT22;8466;52.286;21.124;2023-05-07T02:12:36;5.60;99.90
16700;DHT22;8466;52.286;21.124;2023-05-07T02:15:06;5.60;99.90
16700;DHT22;8466;52.286;21.124;2023-05-07T02:17:39;5.60;99.90
16700;DHT22;8466;52.286;21.124;2023-05-07T02:20:26;5.60;99.90
16700;DHT22;8466;52.286;21.124;2023-05-07T02:22:55;5.50;99.90
16700;DHT22;8466;52.286;21.124;2023-05-07T02:25:24;5.50;99.90
16700;DHT22;8466;52.286;21.124;2023-05-07T02:27:54;5.40;99.90
16700;DHT22;8466;52.286;21.124;2023-05-07T02:30:23;5.50;99.90
16700;DHT22;8466;52.286;21.124;2023-05-07T02:32:52;5.40;99.90
16700;DHT22;8466;52.286;21.124;2023-05-07T02:35:20;5.50;99.90
16700;DHT22;8466;52.286;21.124;2023-05-07T02:37:49;5.50;99.90
16700;DHT22;8466;52.286;21.124;2023-05-07T02:40:18;5.40;99.90
16700;DHT22;8466;52.286;21.124;2023-05-07T02:42:47;5.40;99.90
16700;DHT22;8466;52.286;21.124;2023-05-07T02:45:17;5.40;99.90
16700;DHT22;8466;52.286;21.124;2023-05-07T02:47:45;5.50;99.90
16700;DHT22;8466;52.286;21.124;2023-05-07T02:50:15;5.50;99.90
16700;DHT22;8466;52.286;21.124;2023-05-07T02:52:43;5.50;99.90
16700;DHT22;8466;52.286;21.124;2023-05-07T02:55:12;5.50;99.90
16700;DHT22;8466;52.286;21.124;2023-05-07T02:57:42;5.50;99.90
16700;DHT22;8466;52.286;21.124;2023-05-07T03:00:12;5.50;99.90
16700;DHT22;8466;52.286;21.124;2023-05-07T03:02:42;5.50;99.90
16700;DHT22;8466;52.286;21.124;2023-05-07T03:05:11;5.50;99.90
16700;DHT22;8466;52.286;21.124;2023-05-07T03:07:41;5.50;99.90
16700;DHT22;8466;52.286;21.124;2023-05-07T03:10:13;5.50;99.90
16700;DHT22;8466;52.286;21.124;2023-05-07T03:12:41;5.50;99.90
16700;DHT22;8466;52.286;21.124;2023-05-07T03:15:10;5.50;99.90
16700;DHT22;8466;52.286;21.124;2023-05-07T03:17:39;5.50;99.90
16700;DHT22;8466;52.286;21.124;2023-05-07T03:20:10;5.50;99.90
16700;DHT22;8466;52.286;21.124;2023-05-07T03:22:40;5.50;99.90
16700;DHT22;8466;52.286;21.124;2023-05-07T03:25:09;5.60;99.90
16700;DHT22;8466;52.286;21.124;2023-05-07T03:27:38;5.60;99.90
16700;DHT22;8466;52.286;21.124;2023-05-07T03:30:08;5.70;99.90
16700;DHT22;8466;52.286;21.124;2023-05-07T03:32:37;5.70;99.90
16700;DHT22;8466;52.286;21.124;2023-05-07T03:35:06;5.70;99.90
16700;DHT22;8466;52.286;21.124;2023-05-07T03:37:38;5.70;99.90
16700;DHT22;8466;52.286;21.124;2023-05-07T03:40:07;5.70;99.90
16700;DHT22;8466;52.286;21.124;2023-05-07T03:42:38;5.70;99.90
16700;DHT22;8466;52.286;21.124;2023-05-07T03:45:08;5.80;99.90
16700;DHT22;8466;52.286;21.124;2023-05-07T03:47:48;5.70;99.90
16700;DHT22;8466;52.286;21.124;2023-05-07T03:50:17;5.70;99.90
16700;DHT22;8466;52.286;21.124;2023-05-07T03:52:47;5.70;99.90
16700;DHT22;8466;52.286;21.124;2023-05-07T03:55:15;5.80;99.90
16700;DHT22;8466;52.286;21.124;2023-05-07T03:57:44;5.80;99.90
16700;DHT22;8466;52.286;21.124;2023-05-07T04:00:14;5.80;99.90
16700;DHT22;8466;52.286;21.124;2023-05-07T04:02:43;5.80;99.90
16700;DHT22;8466;52.286;21.124;2023-05-07T04:05:13;5.80;99.90
16700;DHT22;8466;52.286;21.124;2023-05-07T04:07:42;5.80;99.90
16700;DHT22;8466;52.286;21.124;2023-05-07T04:10:12;5.90;99.90
16700;DHT22;8466;52.286;21.124;2023-05-07T04:12:41;5.90;99.90
16700;DHT22;8466;52.286;21.124;2023-05-07T04:15:10;5.90;99.90
16700;DHT22;8466;52.286;21.124;2023-05-07T04:17:39;5.90;99.90
16700;DHT22;8466;52.286;21.124;2023-05-07T04:20:10;6.00;99.90
16700;DHT22;8466;52.286;21.124;2023-05-07T04:22:39;6.10;99.90
16700;DHT22;8466;52.286;21.124;2023-05-07T04:25:09;6.10;99.90
16700;DHT22;8466;52.286;21.124;2023-05-07T04:27:39;6.20;99.90
16700;DHT22;8466;52.286;21.124;2023-05-07T04:30:08;6.20;99.90
16700;DHT22;8466;52.286;21.124;2023-05-07T04:32:38;6.10;99.90
16700;DHT22;8466;52.286;21.124;2023-05-07T04:35:07;6.10;99.90
16700;DHT22;8466;52.286;21.124;2023-05-07T04:37:35;6.20;99.90
16700;DHT22;8466;52.286;21.124;2023-05-07T04:40:06;6.20;99.90
16700;DHT22;8466;52.286;21.124;2023-05-07T04:42:35;6.30;99.90
16700;DHT22;8466;52.286;21.124;2023-05-07T04:45:06;6.30;99.90
16700;DHT22;8466;52.286;21.124;2023-05-07T04:47:35;6.30;99.90
16700;DHT22;8466;52.286;21.124;2023-05-07T04:50:05;6.30;99.90
16700;DHT22;8466;52.286;21.124;2023-05-07T04:52:33;6.40;99.90
16700;DHT22;8466;52.286;21.124;2023-05-07T04:55:02;6.40;99.90
16700;DHT22;8466;52.286;21.124;2023-05-07T04:57:31;6.50;99.90
16700;DHT22;8466;52.286;21.124;2023-05-07T05:00:00;6.40;99.90
16700;DHT22;8466;52.286;21.124;2023-05-07T05:02:30;6.50;99.90
16700;DHT22;8466;52.286;21.124;2023-05-07T05:04:59;6.50;99.90
16700;DHT22;8466;52.286;21.124;2023-05-07T05:07:30;6.60;99.90
16700;DHT22;8466;52.286;21.124;2023-05-07T05:09:59;6.70;99.90
16700;DHT22;8466;52.286;21.124;2023-05-07T05:12:28;6.40;99.90
16700;DHT22;8466;52.286;21.124;2023-05-07T05:14:57;6.80;99.90
16700;DHT22;8466;52.286;21.124;2023-05-07T05:17:25;6.90;99.90
16700;DHT22;8466;52.286;21.124;2023-05-07T05:19:55;7.00;99.90
16700;DHT22;8466;52.286;21.124;2023-05-07T05:22:24;7.10;99.90
16700;DHT22;8466;52.286;21.124;2023-05-07T05:24:53;7.30;99.90
16700;DHT22;8466;52.286;21.124;2023-05-07T05:27:21;7.40;99.90
16700;DHT22;8466;52.286;21.124;2023-05-07T05:29:50;7.40;99.90
16700;DHT22;8466;52.286;21.124;2023-05-07T05:32:19;7.40;99.90
16700;DHT22;8466;52.286;21.124;2023-05-07T05:34:48;7.40;99.90
16700;DHT22;8466;52.286;21.124;2023-05-07T05:37:18;7.40;99.90
16700;DHT22;8466;52.286;21.124;2023-05-07T05:39:46;7.40;99.90
16700;DHT22;8466;52.286;21.124;2023-05-07T05:42:15;7.40;99.90
16700;DHT22;8466;52.286;21.124;2023-05-07T05:44:44;7.30;99.90
16700;DHT22;8466;52.286;21.124;2023-05-07T05:47:13;7.30;99.90
16700;DHT22;8466;52.286;21.124;2023-05-07T05:49:41;7.40;99.90
16700;DHT22;8466;52.286;21.124;2023-05-07T05:52:12;7.30;99.90
16700;DHT22;8466;52.286;21.124;2023-05-07T05:54:42;7.30;99.90
16700;DHT22;8466;52.286;21.124;2023-05-07T05:57:11;7.40;99.90
16700;DHT22;8466;52.286;21.124;2023-05-07T05:59:39;7.40;99.90
16700;DHT22;8466;52.286;21.124;2023-05-07T06:02:08;7.50;99.90
16700;DHT22;8466;52.286;21.124;2023-05-07T06:04:37;7.40;99.90
16700;DHT22;8466;52.286;21.124;2023-05-07T06:07:05;7.40;99.90
16700;DHT22;8466;52.286;21.124;2023-05-07T06:09:34;7.50;99.90
16700;DHT22;8466;52.286;21.124;2023-05-07T06:12:04;7.50;99.90
16700;DHT22;8466;52.286;21.124;2023-05-07T06:14:33;7.60;99.90
16700;DHT22;8466;52.286;21.124;2023-05-07T06:17:01;7.50;99.90
16700;DHT22;8466;52.286;21.124;2023-05-07T06:19:30;7.60;99.90
16700;DHT22;8466;52.286;21.124;2023-05-07T06:21:59;7.70;99.90
16700;DHT22;8466;52.286;21.124;2023-05-07T06:24:28;7.90;99.90
16700;DHT22;8466;52.286;21.124;2023-05-07T06:26:57;8.00;99.90
16700;DHT22;8466;52.286;21.124;2023-05-07T06:29:28;8.10;99.90
16700;DHT22;8466;52.286;21.124;2023-05-07T06:32:06;8.20;99.90
16700;DHT22;8466;52.286;21.124;2023-05-07T06:34:35;8.30;99.90
16700;DHT22;8466;52.286;21.124;2023-05-07T06:37:04;8.30;99.90
16700;DHT22;8466;52.286;21.124;2023-05-07T06:39:33;8.40;99.90
16700;DHT22;8466;52.286;21.124;2023-05-07T06:42:01;8.30;99.90
16700;DHT22;8466;52.286;21.124;2023-05-07T06:44:33;8.40;99.90
16700;DHT22;8466;52.286;21.124;2023-05-07T06:47:01;8.30;99.90
16700;DHT22;8466;52.286;21.124;2023-05-07T06:49:30;8.30;99.90
16700;DHT22;8466;52.286;21.124;2023-05-07T06:52:00;8.20;99.90
16700;DHT22;8466;52.286;21.124;2023-05-07T06:54:29;8.30;99.90
16700;DHT22;8466;52.286;21.124;2023-05-07T06:56:57;8.40;99.90
16700;DHT22;8466;52.286;21.124;2023-05-07T06:59:26;8.40;99.90
16700;DHT22;8466;52.286;21.124;2023-05-07T07:01:57;8.60;99.90
16700;DHT22;8466;52.286;21.124;2023-05-07T07:04:26;8.80;99.90
16700;DHT22;8466;52.286;21.124;2023-05-07T07:06:55;9.10;99.90
16700;DHT22;8466;52.286;21.124;2023-05-07T07:09:24;9.40;99.90
16700;DHT22;8466;52.286;21.124;2023-05-07T07:11:53;9.40;99.90
16700;DHT22;8466;52.286;21.124;2023-05-07T07:14:22;9.40;99.90
16700;DHT22;8466;52.286;21.124;2023-05-07T07:16:50;9.60;99.90
16700;DHT22;8466;52.286;21.124;2023-05-07T07:19:20;9.70;99.90
16700;DHT22;8466;52.286;21.124;2023-05-07T07:21:49;9.90;99.90
16700;DHT22;8466;52.286;21.124;2023-05-07T07:24:18;10.00;99.90
16700;DHT22;8466;52.286;21.124;2023-05-07T07:26:48;10.00;99.90
16700;DHT22;8466;52.286;21.124;2023-05-07T07:29:17;10.10;99.90
16700;DHT22;8466;52.286;21.124;2023-05-07T07:31:46;10.00;99.90
16700;DHT22;8466;52.286;21.124;2023-05-07T07:34:14;10.00;99.90
16700;DHT22;8466;52.286;21.124;2023-05-07T07:36:45;9.90;99.90
16700;DHT22;8466;52.286;21.124;2023-05-07T07:39:14;9.90;99.90
16700;DHT22;8466;52.286;21.124;2023-05-07T07:41:42;10.10;99.90
16700;DHT22;8466;52.286;21.124;2023-05-07T07:44:11;10.30;99.90
16700;DHT22;8466;52.286;21.124;2023-05-07T07:46:42;10.40;99.90
16700;DHT22;8466;52.286;21.124;2023-05-07T07:49:11;10.10;99.90
16700;DHT22;8466;52.286;21.124;2023-05-07T07:51:39;10.00;99.90
16700;DHT22;8466;52.286;21.124;2023-05-07T07:54:09;10.00;99.90
16700;DHT22;8466;52.286;21.124;2023-05-07T07:56:38;9.80;99.90
16700;DHT22;8466;52.286;21.124;2023-05-07T07:59:07;9.90;99.90
16700;DHT22;8466;52.286;21.124;2023-05-07T08:01:35;9.90;99.90
16700;DHT22;8466;52.286;21.124;2023-05-07T08:04:04;9.90;99.90
16700;DHT22;8466;52.286;21.124;2023-05-07T08:06:33;10.10;99.90
16700;DHT22;8466;52.286;21.124;2023-05-07T08:09:02;10.30;99.90
16700;DHT22;8466;52.286;21.124;2023-05-07T08:11:33;10.30;99.90
16700;DHT22;8466;52.286;21.124;2023-05-07T08:14:03;10.40;99.90
16700;DHT22;8466;52.286;21.124;2023-05-07T08:16:31;10.60;99.90
16700;DHT22;8466;52.286;21.124;2023-05-07T08:19:00;10.70;99.90
16700;DHT22;8466;52.286;21.124;2023-05-07T08:21:29;11.00;99.90
16700;DHT22;8466;52.286;21.124;2023-05-07T08:24:00;11.20;99.90
16700;DHT22;8466;52.286;21.124;2023-05-07T08:26:29;11.10;99.90
16700;DHT22;8466;52.286;21.124;2023-05-07T08:29:02;11.00;99.90
16700;DHT22;8466;52.286;21.124;2023-05-07T08:31:30;11.10;99.90
16700;DHT22;8466;52.286;21.124;2023-05-07T08:34:00;11.30;99.90
16700;DHT22;8466;52.286;21.124;2023-05-07T08:36:29;11.60;99.90
16700;DHT22;8466;52.286;21.124;2023-05-07T08:38:58;11.60;99.90
16700;DHT22;8466;52.286;21.124;2023-05-07T08:41:28;11.60;99.90
16700;DHT22;8466;52.286;21.124;2023-05-07T08:43:58;11.60;99.90
16700;DHT22;8466;52.286;21.124;2023-05-07T08:46:31;11.70;99.90
16700;DHT22;8466;52.286;21.124;2023-05-07T08:49:01;11.70;99.90
16700;DHT22;8466;52.286;21.124;2023-05-07T08:51:29;11.60;99.90
16700;DHT22;8466;52.286;21.124;2023-05-07T08:54:00;11.50;99.90
16700;DHT22;8466;52.286;21.124;2023-05-07T08:56:33;11.60;99.90
16700;DHT22;8466;52.286;21.124;2023-05-07T08:59:03;11.60;99.90
16700;DHT22;8466;52.286;21.124;2023-05-07T09:01:34;11.60;99.90
16700;DHT22;8466;52.286;21.124;2023-05-07T09:04:03;11.90;99.90
16700;DHT22;8466;52.286;21.124;2023-05-07T09:06:33;11.90;99.90
16700;DHT22;8466;52.286;21.124;2023-05-07T09:09:01;12.20;99.90
16700;DHT22;8466;52.286;21.124;2023-05-07T09:11:32;12.30;99.90
16700;DHT22;8466;52.286;21.124;2023-05-07T09:14:01;12.40;99.90
16700;DHT22;8466;52.286;21.124;2023-05-07T09:16:33;12.50;99.90
16700;DHT22;8466;52.286;21.124;2023-05-07T09:19:05;12.40;99.90
16700;DHT22;8466;52.286;21.124;2023-05-07T09:21:34;12.30;99.90
16700;DHT22;8466;52.286;21.124;2023-05-07T09:24:05;12.30;99.90
16700;DHT22;8466;52.286;21.124;2023-05-07T09:26:42;12.40;99.90
16700;DHT22;8466;52.286;21.124;2023-05-07T09:29:11;12.50;99.90
16700;DHT22;8466;52.286;21.124;2023-05-07T09:31:41;12.40;99.90
16700;DHT22;8466;52.286;21.124;2023-05-07T09:34:10;12.50;99.90
16700;DHT22;8466;52.286;21.124;2023-05-07T09:36:39;12.30;99.90
16700;DHT22;8466;52.286;21.124;2023-05-07T09:39:08;12.10;99.90
16700;DHT22;8466;52.286;21.124;2023-05-07T09:41:43;12.00;99.90
16700;DHT22;8466;52.286;21.124;2023-05-07T09:44:14;11.90;99.90
16700;DHT22;8466;52.286;21.124;2023-05-07T09:46:53;11.70;99.90
16700;DHT22;8466;52.286;21.124;2023-05-07T09:49:24;11.50;99.90
16700;DHT22;8466;52.286;21.124;2023-05-07T09:51:55;11.30;99.90
16700;DHT22;8466;52.286;21.124;2023-05-07T09:54:25;11.50;99.90
16700;DHT22;8466;52.286;21.124;2023-05-07T09:56:55;11.90;99.90
16700;DHT22;8466;52.286;21.124;2023-05-07T09:59:24;12.20;99.90
16700;DHT22;8466;52.286;21.124;2023-05-07T10:02:08;12.30;99.90
16700;DHT22;8466;52.286;21.124;2023-05-07T10:04:38;12.10;99.90
16700;DHT22;8466;52.286;21.124;2023-05-07T10:07:11;11.80;99.90
16700;DHT22;8466;52.286;21.124;2023-05-07T10:09:43;11.50;99.90
16700;DHT22;8466;52.286;21.124;2023-05-07T10:12:15;11.40;99.90
16700;DHT22;8466;52.286;21.124;2023-05-07T10:14:45;11.50;99.90
16700;DHT22;8466;52.286;21.124;2023-05-07T10:17:17;11.90;99.90
16700;DHT22;8466;52.286;21.124;2023-05-07T10:19:46;12.30;99.90
16700;DHT22;8466;52.286;21.124;2023-05-07T10:22:16;12.70;99.90
16700;DHT22;8466;52.286;21.124;2023-05-07T10:24:49;12.90;99.90
16700;DHT22;8466;52.286;21.124;2023-05-07T10:27:22;13.10;99.90
16700;DHT22;8466;52.286;21.124;2023-05-07T10:29:58;13.00;99.90
16700;DHT22;8466;52.286;21.124;2023-05-07T10:32:38;13.00;99.90
16700;DHT22;8466;52.286;21.124;2023-05-07T10:35:11;13.10;99.90
16700;DHT22;8466;52.286;21.124;2023-05-07T10:37:42;13.10;99.90
16700;DHT22;8466;52.286;21.124;2023-05-07T10:40:12;13.30;99.90
16700;DHT22;8466;52.286;21.124;2023-05-07T10:42:54;13.20;99.90
16700;DHT22;8466;52.286;21.124;2023-05-07T10:45:24;13.20;99.90
16700;DHT22;8466;52.286;21.124;2023-05-07T10:48:11;13.30;99.90
16700;DHT22;8466;52.286;21.124;2023-05-07T10:51:20;13.40;99.90
16700;DHT22;8466;52.286;21.124;2023-05-07T10:54:18;13.60;99.90
16700;DHT22;8466;52.286;21.124;2023-05-07T10:56:47;13.60;99.90
16700;DHT22;8466;52.286;21.124;2023-05-07T10:59:34;13.50;99.90
16700;DHT22;8466;52.286;21.124;2023-05-07T11:02:09;13.30;99.90
16700;DHT22;8466;52.286;21.124;2023-05-07T11:04:42;13.20;99.90
16700;DHT22;8466;52.286;21.124;2023-05-07T11:07:31;13.10;99.90
16700;DHT22;8466;52.286;21.124;2023-05-07T11:10:04;13.10;99.90
16700;DHT22;8466;52.286;21.124;2023-05-07T11:12:53;13.40;99.90
16700;DHT22;8466;52.286;21.124;2023-05-07T11:15:39;13.90;99.80
16700;DHT22;8466;52.286;21.124;2023-05-07T11:18:10;14.00;98.80
16700;DHT22;8466;52.286;21.124;2023-05-07T11:20:52;13.90;98.60
16700;DHT22;8466;52.286;21.124;2023-05-07T11:26:25;14.20;97.80
16700;DHT22;8466;52.286;21.124;2023-05-07T11:28:54;14.10;98.30
16700;DHT22;8466;52.286;21.124;2023-05-07T11:31:26;13.90;97.30
16700;DHT22;8466;52.286;21.124;2023-05-07T11:33:55;13.60;98.20
16700;DHT22;8466;52.286;21.124;2023-05-07T11:36:31;13.30;98.50
16700;DHT22;8466;52.286;21.124;2023-05-07T11:39:01;13.20;98.20
16700;DHT22;8466;52.286;21.124;2023-05-07T11:41:36;13.20;98.00
16700;DHT22;8466;52.286;21.124;2023-05-07T11:44:05;13.30;98.70
16700;DHT22;8466;52.286;21.124;2023-05-07T11:46:34;13.60;98.80
16700;DHT22;8466;52.286;21.124;2023-05-07T11:49:03;13.80;97.50
16700;DHT22;8466;52.286;21.124;2023-05-07T11:51:33;13.80;97.10
16700;DHT22;8466;52.286;21.124;2023-05-07T11:54:04;13.90;97.90
16700;DHT22;8466;52.286;21.124;2023-05-07T11:56:35;14.10;98.10
16700;DHT22;8466;52.286;21.124;2023-05-07T11:59:04;14.10;98.80
16700;DHT22;8466;52.286;21.124;2023-05-07T12:01:35;14.10;99.30
16700;DHT22;8466;52.286;21.124;2023-05-07T12:04:04;14.40;98.30
16700;DHT22;8466;52.286;21.124;2023-05-07T12:06:37;14.60;97.40
16700;DHT22;8466;52.286;21.124;2023-05-07T12:09:06;14.60;96.90
16700;DHT22;8466;52.286;21.124;2023-05-07T12:11:38;14.60;97.20
16700;DHT22;8466;52.286;21.124;2023-05-07T12:14:08;14.60;96.60
16700;DHT22;8466;52.286;21.124;2023-05-07T12:16:40;14.90;96.70
16700;DHT22;8466;52.286;21.124;2023-05-07T12:19:09;15.00;96.30
16700;DHT22;8466;52.286;21.124;2023-05-07T12:21:43;15.20;95.80
16700;DHT22;8466;52.286;21.124;2023-05-07T12:24:14;15.30;95.80
16700;DHT22;8466;52.286;21.124;2023-05-07T12:26:43;15.40;95.00
16700;DHT22;8466;52.286;21.124;2023-05-07T12:29:12;15.30;95.00
16700;DHT22;8466;52.286;21.124;2023-05-07T12:31:41;15.30;94.00
16700;DHT22;8466;52.286;21.124;2023-05-07T12:34:11;15.00;95.30
16700;DHT22;8466;52.286;21.124;2023-05-07T12:36:40;14.90;94.60
16700;DHT22;8466;52.286;21.124;2023-05-07T12:39:10;14.60;95.00
16700;DHT22;8466;52.286;21.124;2023-05-07T12:41:58;14.10;95.50
16700;DHT22;8466;52.286;21.124;2023-05-07T12:44:30;13.70;97.20
16700;DHT22;8466;52.286;21.124;2023-05-07T12:47:01;13.40;96.70
16700;DHT22;8466;52.286;21.124;2023-05-07T12:49:30;13.10;97.00
16700;DHT22;8466;52.286;21.124;2023-05-07T12:51:59;12.90;98.00
16700;DHT22;8466;52.286;21.124;2023-05-07T12:54:29;12.60;98.30
16700;DHT22;8466;52.286;21.124;2023-05-07T12:57:02;12.50;97.90
16700;DHT22;8466;52.286;21.124;2023-05-07T12:59:33;12.30;98.60
16700;DHT22;8466;52.286;21.124;2023-05-07T13:02:01;12.60;97.20
16700;DHT22;8466;52.286;21.124;2023-05-07T13:04:30;12.50;98.60
16700;DHT22;8466;52.286;21.124;2023-05-07T13:07:00;12.50;98.20
16700;DHT22;8466;52.286;21.124;2023-05-07T13:09:31;12.60;98.40
16700;DHT22;8466;52.286;21.124;2023-05-07T13:12:01;12.80;98.50
16700;DHT22;8466;52.286;21.124;2023-05-07T13:14:29;13.00;98.00
16700;DHT22;8466;52.286;21.124;2023-05-07T13:17:01;13.10;97.70
16700;DHT22;8466;52.286;21.124;2023-05-07T13:19:29;13.00;97.60
16700;DHT22;8466;52.286;21.124;2023-05-07T13:21:58;12.90;97.40
16700;DHT22;8466;52.286;21.124;2023-05-07T13:24:27;12.70;96.90
16700;DHT22;8466;52.286;21.124;2023-05-07T13:26:57;12.60;97.30
16700;DHT22;8466;52.286;21.124;2023-05-07T13:29:25;12.70;98.00
16700;DHT22;8466;52.286;21.124;2023-05-07T13:31:57;12.80;96.90
16700;DHT22;8466;52.286;21.124;2023-05-07T13:34:28;13.00;96.60
16700;DHT22;8466;52.286;21.124;2023-05-07T13:36:57;13.20;96.50
16700;DHT22;8466;52.286;21.124;2023-05-07T13:39:25;13.50;97.30
16700;DHT22;8466;52.286;21.124;2023-05-07T13:41:54;13.60;96.40
16700;DHT22;8466;52.286;21.124;2023-05-07T13:44:26;13.50;96.30
16700;DHT22;8466;52.286;21.124;2023-05-07T13:46:55;13.50;96.40
16700;DHT22;8466;52.286;21.124;2023-05-07T13:49:24;13.30;97.20
16700;DHT22;8466;52.286;21.124;2023-05-07T13:51:53;13.20;96.90
16700;DHT22;8466;52.286;21.124;2023-05-07T13:54:21;13.10;98.40
16700;DHT22;8466;52.286;21.124;2023-05-07T13:56:51;13.00;96.90
16700;DHT22;8466;52.286;21.124;2023-05-07T13:59:21;12.80;97.50
16700;DHT22;8466;52.286;21.124;2023-05-07T14:01:51;12.70;97.70
16700;DHT22;8466;52.286;21.124;2023-05-07T14:04:19;12.60;98.40
16700;DHT22;8466;52.286;21.124;2023-05-07T14:06:48;12.60;97.80
16700;DHT22;8466;52.286;21.124;2023-05-07T14:09:17;12.60;96.90
16700;DHT22;8466;52.286;21.124;2023-05-07T14:11:45;12.60;96.30
16700;DHT22;8466;52.286;21.124;2023-05-07T14:14:18;12.50;96.50
16700;DHT22;8466;52.286;21.124;2023-05-07T14:16:47;12.50;98.10
16700;DHT22;8466;52.286;21.124;2023-05-07T14:19:18;12.50;96.90
16700;DHT22;8466;52.286;21.124;2023-05-07T14:21:53;12.40;98.00
16700;DHT22;8466;52.286;21.124;2023-05-07T14:24:25;12.50;96.70
16700;DHT22;8466;52.286;21.124;2023-05-07T14:27:06;12.50;97.50
16700;DHT22;8466;52.286;21.124;2023-05-07T14:29:35;12.70;97.00
16700;DHT22;8466;52.286;21.124;2023-05-07T14:32:04;12.70;97.20
16700;DHT22;8466;52.286;21.124;2023-05-07T14:34:34;12.60;98.00
16700;DHT22;8466;52.286;21.124;2023-05-07T14:37:03;12.70;98.00
16700;DHT22;8466;52.286;21.124;2023-05-07T14:39:32;12.70;97.60
16700;DHT22;8466;52.286;21.124;2023-05-07T14:42:00;12.70;98.00
16700;DHT22;8466;52.286;21.124;2023-05-07T14:44:29;12.70;98.30
16700;DHT22;8466;52.286;21.124;2023-05-07T14:46:58;12.80;98.00
16700;DHT22;8466;52.286;21.124;2023-05-07T14:49:28;13.00;97.20
16700;DHT22;8466;52.286;21.124;2023-05-07T14:51:58;13.20;96.50
16700;DHT22;8466;52.286;21.124;2023-05-07T14:54:28;13.30;96.00
16700;DHT22;8466;52.286;21.124;2023-05-07T14:56:57;13.30;96.20
16700;DHT22;8466;52.286;21.124;2023-05-07T14:59:25;13.20;96.50
16700;DHT22;8466;52.286;21.124;2023-05-07T15:01:54;13.20;96.60
16700;DHT22;8466;52.286;21.124;2023-05-07T15:04:24;13.40;96.20
16700;DHT22;8466;52.286;21.124;2023-05-07T15:06:53;13.70;95.40
16700;DHT22;8466;52.286;21.124;2023-05-07T15:09:24;14.00;96.00
16700;DHT22;8466;52.286;21.124;2023-05-07T15:11:53;14.40;95.40
16700;DHT22;8466;52.286;21.124;2023-05-07T15:14:22;14.70;94.60
16700;DHT22;8466;52.286;21.124;2023-05-07T15:16:51;15.00;93.60
16700;DHT22;8466;52.286;21.124;2023-05-07T15:19:19;15.20;93.30
16700;DHT22;8466;52.286;21.124;2023-05-07T15:21:49;15.20;92.50
16700;DHT22;8466;52.286;21.124;2023-05-07T15:24:19;15.00;93.50
16700;DHT22;8466;52.286;21.124;2023-05-07T15:26:49;14.60;92.90
16700;DHT22;8466;52.286;21.124;2023-05-07T15:29:17;14.20;93.70
16700;DHT22;8466;52.286;21.124;2023-05-07T15:31:46;13.80;94.40
16700;DHT22;8466;52.286;21.124;2023-05-07T15:34:15;13.40;94.10
16700;DHT22;8466;52.286;21.124;2023-05-07T15:36:44;13.10;94.90
16700;DHT22;8466;52.286;21.124;2023-05-07T15:39:12;12.90;95.60
16700;DHT22;8466;52.286;21.124;2023-05-07T15:41:41;12.70;95.60
16700;DHT22;8466;52.286;21.124;2023-05-07T15:44:11;12.60;96.60
16700;DHT22;8466;52.286;21.124;2023-05-07T15:46:40;12.40;96.90
16700;DHT22;8466;52.286;21.124;2023-05-07T15:49:09;12.20;97.90
16700;DHT22;8466;52.286;21.124;2023-05-07T15:51:39;12.10;98.20
16700;DHT22;8466;52.286;21.124;2023-05-07T15:54:09;12.20;95.80
16700;DHT22;8466;52.286;21.124;2023-05-07T15:56:37;12.10;95.90
16700;DHT22;8466;52.286;21.124;2023-05-07T15:59:06;12.00;96.40